sensor_id;sensor_type;location;lat;lon;timestamp;temperature;humidity
10294;DHT22;5192;50.328;7.610;2023-07-13T00:02:16;18.90;1.00
10294;DHT22;5192;50.328;7.610;2023-07-13T00:04:44;18.90;1.00
10294;DHT22;5192;50.328;7.610;2023-07-13T00:07:11;18.90;1.00
10294;DHT22;5192;50.328;7.610;2023-07-13T00:09:40;18.80;1.00
10294;DHT22;5192;50.328;7.610;2023-07-13T00:12:23;18.80;1.00
10294;DHT22;5192;50.328;7.610;2023-07-13T00:14:50;18.70;1.00
10294;DHT22;5192;50.328;7.610;2023-07-13T00:17:17;18.70;1.00
10294;DHT22;5192;50.328;7.610;2023-07-13T00:19:43;18.60;1.00
10294;DHT22;5192;50.328;7.610;2023-07-13T00:22:10;18.60;1.00
10294;DHT22;5192;50.328;7.610;2023-07-13T00:24:36;18.60;1.00
10294;DHT22;5192;50.328;7.610;2023-07-13T00:27:09;18.50;1.00
10294;DHT22;5192;50.328;7.610;2023-07-13T00:29:36;18.50;1.00
10294;DHT22;5192;50.328;7.610;2023-07-13T00:32:24;18.40;1.00
10294;DHT22;5192;50.328;7.610;2023-07-13T00:34:52;18.30;1.00
10294;DHT22;5192;50.328;7.610;2023-07-13T00:37:18;18.20;1.00
10294;DHT22;5192;50.328;7.610;2023-07-13T00:39:46;18.10;1.00
10294;DHT22;5192;50.328;7.610;2023-07-13T00:42:12;17.90;1.00
10294;DHT22;5192;50.328;7.610;2023-07-13T00:44:41;17.90;1.00
10294;DHT22;5192;50.328;7.610;2023-07-13T00:47:08;17.70;1.00
10294;DHT22;5192;50.328;7.610;2023-07-13T00:49:37;17.60;1.00
10294;DHT22;5192;50.328;7.610;2023-07-13T00:52:07;17.40;2.10
10294;DHT22;5192;50.328;7.610;2023-07-13T00:54:43;17.20;7.70
10294;DHT22;5192;50.328;7.610;2023-07-13T00:57:14;17.10;13.30
10294;DHT22;5192;50.328;7.610;2023-07-13T00:59:46;17.00;17.20
10294;DHT22;5192;50.328;7.610;2023-07-13T01:02:18;16.90;19.20
10294;DHT22;5192;50.328;7.610;2023-07-13T01:04:44;16.80;19.50
10294;DHT22;5192;50.328;7.610;2023-07-13T01:07:11;16.70;20.80
10294;DHT22;5192;50.328;7.610;2023-07-13T01:09:40;16.60;20.10
10294;DHT22;5192;50.328;7.610;2023-07-13T01:12:08;16.50;20.90
10294;DHT22;5192;50.328;7.610;2023-07-13T01:14:35;16.40;23.60
10294;DHT22;5192;50.328;7.610;2023-07-13T01:17:04;16.30;24.60
10294;DHT22;5192;50.328;7.610;2023-07-13T01:22:21;16.10;26.60
10294;DHT22;5192;50.328;7.610;2023-07-13T01:24:54;16.00;27.50
10294;DHT22;5192;50.328;7.610;2023-07-13T01:27:22;15.90;26.60
10294;DHT22;5192;50.328;7.610;2023-07-13T01:29:51;15.80;25.60
10294;DHT22;5192;50.328;7.610;2023-07-13T01:32:24;15.70;27.90
10294;DHT22;5192;50.328;7.610;2023-07-13T01:34:53;15.70;26.50
10294;DHT22;5192;50.328;7.610;2023-07-13T01:37:26;15.60;26.60
10294;DHT22;5192;50.328;7.610;2023-07-13T01:39:53;15.60;25.90
10294;DHT22;5192;50.328;7.610;2023-07-13T01:42:24;15.50;23.40
10294;DHT22;5192;50.328;7.610;2023-07-13T01:44:54;15.50;22.80
10294;DHT22;5192;50.328;7.610;2023-07-13T01:47:23;15.60;23.70
10294;DHT22;5192;50.328;7.610;2023-07-13T01:49:49;15.40;24.90
10294;DHT22;5192;50.328;7.610;2023-07-13T01:52:19;15.40;23.30
10294;DHT22;5192;50.328;7.610;2023-07-13T01:54:46;15.30;23.60
10294;DHT22;5192;50.328;7.610;2023-07-13T01:57:12;15.30;23.80
10294;DHT22;5192;50.328;7.610;2023-07-13T01:59:39;15.30;24.50
10294;DHT22;5192;50.328;7.610;2023-07-13T02:02:07;15.20;23.60
10294;DHT22;5192;50.328;7.610;2023-07-13T02:04:34;15.30;16.00
10294;DHT22;5192;50.328;7.610;2023-07-13T02:07:01;15.30;21.90
10294;DHT22;5192;50.328;7.610;2023-07-13T02:09:27;15.30;17.20
10294;DHT22;5192;50.328;7.610;2023-07-13T02:11:54;15.30;16.70
10294;DHT22;5192;50.328;7.610;2023-07-13T02:14:20;15.20;18.40
10294;DHT22;5192;50.328;7.610;2023-07-13T02:16:48;15.20;17.60
10294;DHT22;5192;50.328;7.610;2023-07-13T02:19:16;15.20;18.90
10294;DHT22;5192;50.328;7.610;2023-07-13T02:21:44;15.10;17.50
10294;DHT22;5192;50.328;7.610;2023-07-13T02:24:14;15.20;16.10
10294;DHT22;5192;50.328;7.610;2023-07-13T02:26:44;15.20;19.70
10294;DHT22;5192;50.328;7.610;2023-07-13T02:29:11;15.20;21.00
10294;DHT22;5192;50.328;7.610;2023-07-13T02:31:38;15.20;20.60
10294;DHT22;5192;50.328;7.610;2023-07-13T02:34:06;15.10;18.30
10294;DHT22;5192;50.328;7.610;2023-07-13T02:36:33;15.10;17.30
10294;DHT22;5192;50.328;7.610;2023-07-13T02:39:01;15.10;17.70
10294;DHT22;5192;50.328;7.610;2023-07-13T02:41:28;15.20;17.50
10294;DHT22;5192;50.328;7.610;2023-07-13T02:43:57;15.10;17.80
10294;DHT22;5192;50.328;7.610;2023-07-13T02:46:30;15.20;17.20
10294;DHT22;5192;50.328;7.610;2023-07-13T02:48:58;15.20;14.90
10294;DHT22;5192;50.328;7.610;2023-07-13T02:51:25;15.20;21.00
10294;DHT22;5192;50.328;7.610;2023-07-13T02:53:54;15.30;19.20
10294;DHT22;5192;50.328;7.610;2023-07-13T02:56:24;15.10;18.00
10294;DHT22;5192;50.328;7.610;2023-07-13T02:58:52;15.10;16.80
10294;DHT22;5192;50.328;7.610;2023-07-13T03:01:21;15.10;17.40
10294;DHT22;5192;50.328;7.610;2023-07-13T03:03:52;15.10;17.50
10294;DHT22;5192;50.328;7.610;2023-07-13T03:06:19;15.00;16.40
10294;DHT22;5192;50.328;7.610;2023-07-13T03:08:52;15.10;12.70
10294;DHT22;5192;50.328;7.610;2023-07-13T03:11:21;15.20;15.00
10294;DHT22;5192;50.328;7.610;2023-07-13T03:13:49;15.20;18.70
10294;DHT22;5192;50.328;7.610;2023-07-13T03:16:17;15.10;17.10
10294;DHT22;5192;50.328;7.610;2023-07-13T03:18:46;15.10;17.70
10294;DHT22;5192;50.328;7.610;2023-07-13T03:21:13;15.10;18.10
10294;DHT22;5192;50.328;7.610;2023-07-13T03:23:40;15.00;19.40
10294;DHT22;5192;50.328;7.610;2023-07-13T03:26:12;15.00;18.60
10294;DHT22;5192;50.328;7.610;2023-07-13T03:28:40;14.90;19.50
10294;DHT22;5192;50.328;7.610;2023-07-13T03:31:15;14.90;19.60
10294;DHT22;5192;50.328;7.610;2023-07-13T03:33:42;14.90;21.60
10294;DHT22;5192;50.328;7.610;2023-07-13T03:36:16;14.80;17.50
10294;DHT22;5192;50.328;7.610;2023-07-13T03:38:49;14.80;15.70
10294;DHT22;5192;50.328;7.610;2023-07-13T03:41:16;14.90;14.20
10294;DHT22;5192;50.328;7.610;2023-07-13T03:43:43;14.90;15.60
10294;DHT22;5192;50.328;7.610;2023-07-13T03:46:09;14.90;16.90
10294;DHT22;5192;50.328;7.610;2023-07-13T03:48:37;14.90;18.90
10294;DHT22;5192;50.328;7.610;2023-07-13T03:51:08;14.90;18.30
10294;DHT22;5192;50.328;7.610;2023-07-13T03:53:39;15.00;16.10
10294;DHT22;5192;50.328;7.610;2023-07-13T03:56:06;14.90;15.00
10294;DHT22;5192;50.328;7.610;2023-07-13T03:58:39;15.00;15.20
10294;DHT22;5192;50.328;7.610;2023-07-13T04:01:11;15.00;13.40
10294;DHT22;5192;50.328;7.610;2023-07-13T04:03:39;15.00;15.20
10294;DHT22;5192;50.328;7.610;2023-07-13T04:06:13;15.10;15.20
10294;DHT22;5192;50.328;7.610;2023-07-13T04:08:41;15.10;11.60
10294;DHT22;5192;50.328;7.610;2023-07-13T04:11:08;15.10;11.70
10294;DHT22;5192;50.328;7.610;2023-07-13T04:13:36;15.30;12.80
10294;DHT22;5192;50.328;7.610;2023-07-13T04:16:04;15.10;13.60
10294;DHT22;5192;50.328;7.610;2023-07-13T04:18:31;15.20;16.30
10294;DHT22;5192;50.328;7.610;2023-07-13T04:21:00;15.20;14.20
10294;DHT22;5192;50.328;7.610;2023-07-13T04:23:28;15.20;13.40
10294;DHT22;5192;50.328;7.610;2023-07-13T04:25:56;15.20;14.70
10294;DHT22;5192;50.328;7.610;2023-07-13T04:28:24;15.20;13.60
10294;DHT22;5192;50.328;7.610;2023-07-13T04:30:53;15.20;15.20
10294;DHT22;5192;50.328;7.610;2023-07-13T04:33:26;15.20;14.40
10294;DHT22;5192;50.328;7.610;2023-07-13T04:36:04;15.20;17.10
10294;DHT22;5192;50.328;7.610;2023-07-13T04:38:31;15.20;18.10
10294;DHT22;5192;50.328;7.610;2023-07-13T04:41:00;15.20;19.30
10294;DHT22;5192;50.328;7.610;2023-07-13T04:43:32;15.10;18.40
10294;DHT22;5192;50.328;7.610;2023-07-13T04:46:08;15.20;17.50
10294;DHT22;5192;50.328;7.610;2023-07-13T04:48:38;15.10;16.70
10294;DHT22;5192;50.328;7.610;2023-07-13T04:51:05;15.20;16.80
10294;DHT22;5192;50.328;7.610;2023-07-13T04:53:33;15.20;14.20
10294;DHT22;5192;50.328;7.610;2023-07-13T04:56:01;15.30;15.20
10294;DHT22;5192;50.328;7.610;2023-07-13T04:58:30;15.30;14.80
10294;DHT22;5192;50.328;7.610;2023-07-13T05:01:03;15.40;12.60
10294;DHT22;5192;50.328;7.610;2023-07-13T05:03:30;15.50;11.70
10294;DHT22;5192;50.328;7.610;2023-07-13T05:06:06;15.70;11.00
10294;DHT22;5192;50.328;7.610;2023-07-13T05:08:36;15.70;13.30
10294;DHT22;5192;50.328;7.610;2023-07-13T05:11:05;15.80;11.40
10294;DHT22;5192;50.328;7.610;2023-07-13T05:13:35;15.90;9.50
10294;DHT22;5192;50.328;7.610;2023-07-13T05:16:04;16.00;9.30
10294;DHT22;5192;50.328;7.610;2023-07-13T05:18:33;16.20;8.10
10294;DHT22;5192;50.328;7.610;2023-07-13T05:21:06;16.30;6.40
10294;DHT22;5192;50.328;7.610;2023-07-13T05:23:36;16.60;4.70
10294;DHT22;5192;50.328;7.610;2023-07-13T05:26:04;16.60;4.90
10294;DHT22;5192;50.328;7.610;2023-07-13T05:28:32;16.80;3.70
10294;DHT22;5192;50.328;7.610;2023-07-13T05:31:01;16.90;1.40
10294;DHT22;5192;50.328;7.610;2023-07-13T05:33:27;17.00;1.00
10294;DHT22;5192;50.328;7.610;2023-07-13T05:35:56;17.10;1.00
10294;DHT22;5192;50.328;7.610;2023-07-13T05:38:23;17.20;1.00
10294;DHT22;5192;50.328;7.610;2023-07-13T05:40:51;17.30;1.00
10294;DHT22;5192;50.328;7.610;2023-07-13T05:43:18;17.30;1.00
10294;DHT22;5192;50.328;7.610;2023-07-13T05:45:46;17.40;1.00
10294;DHT22;5192;50.328;7.610;2023-07-13T05:48:14;17.30;1.00
10294;DHT22;5192;50.328;7.610;2023-07-13T05:50:44;17.40;1.00
10294;DHT22;5192;50.328;7.610;2023-07-13T05:53:16;17.50;1.00
10294;DHT22;5192;50.328;7.610;2023-07-13T05:55:44;17.40;1.00
10294;DHT22;5192;50.328;7.610;2023-07-13T05:58:12;17.30;1.00
10294;DHT22;5192;50.328;7.610;2023-07-13T06:00:41;17.30;1.00
10294;DHT22;5192;50.328;7.610;2023-07-13T06:03:08;17.30;1.00
10294;DHT22;5192;50.328;7.610;2023-07-13T06:05:39;17.20;1.00
10294;DHT22;5192;50.328;7.610;2023-07-13T06:08:06;17.20;1.00
10294;DHT22;5192;50.328;7.610;2023-07-13T06:10:34;17.30;1.00
10294;DHT22;5192;50.328;7.610;2023-07-13T06:13:04;17.30;1.00
10294;DHT22;5192;50.328;7.610;2023-07-13T06:15:32;17.30;1.00
10294;DHT22;5192;50.328;7.610;2023-07-13T06:17:59;17.40;1.00
10294;DHT22;5192;50.328;7.610;2023-07-13T06:20:26;17.40;1.00
10294;DHT22;5192;50.328;7.610;2023-07-13T06:22:53;17.40;1.00
10294;DHT22;5192;50.328;7.610;2023-07-13T06:25:21;17.40;1.00
10294;DHT22;5192;50.328;7.610;2023-07-13T06:27:48;17.40;1.00
10294;DHT22;5192;50.328;7.610;2023-07-13T06:30:15;17.50;1.00
10294;DHT22;5192;50.328;7.610;2023-07-13T06:32:45;17.50;1.00
10294;DHT22;5192;50.328;7.610;2023-07-13T06:35:10;17.60;1.00
10294;DHT22;5192;50.328;7.610;2023-07-13T06:37:40;17.60;1.00
10294;DHT22;5192;50.328;7.610;2023-07-13T06:40:07;17.70;1.00
10294;DHT22;5192;50.328;7.610;2023-07-13T06:42:34;17.70;1.00
10294;DHT22;5192;50.328;7.610;2023-07-13T06:45:00;17.70;1.00
10294;DHT22;5192;50.328;7.610;2023-07-13T06:47:27;17.70;1.00
10294;DHT22;5192;50.328;7.610;2023-07-13T06:49:54;17.70;1.00
10294;DHT22;5192;50.328;7.610;2023-07-13T06:52:20;17.60;1.00
10294;DHT22;5192;50.328;7.610;2023-07-13T06:54:49;17.60;1.00
10294;DHT22;5192;50.328;7.610;2023-07-13T06:57:15;17.60;1.00
10294;DHT22;5192;50.328;7.610;2023-07-13T06:59:43;17.70;1.00
10294;DHT22;5192;50.328;7.610;2023-07-13T07:02:12;17.70;1.00
10294;DHT22;5192;50.328;7.610;2023-07-13T07:04:39;17.80;1.00
10294;DHT22;5192;50.328;7.610;2023-07-13T07:07:05;17.90;1.00
10294;DHT22;5192;50.328;7.610;2023-07-13T07:09:33;18.00;1.00
10294;DHT22;5192;50.328;7.610;2023-07-13T07:11:58;18.00;1.00
10294;DHT22;5192;50.328;7.610;2023-07-13T07:14:25;18.20;1.00
10294;DHT22;5192;50.328;7.610;2023-07-13T07:16:51;18.20;1.00
10294;DHT22;5192;50.328;7.610;2023-07-13T07:19:18;18.30;1.00
10294;DHT22;5192;50.328;7.610;2023-07-13T07:21:46;18.40;1.00
10294;DHT22;5192;50.328;7.610;2023-07-13T07:24:14;18.40;1.00
10294;DHT22;5192;50.328;7.610;2023-07-13T07:26:41;18.50;1.00
10294;DHT22;5192;50.328;7.610;2023-07-13T07:29:12;18.50;1.00
10294;DHT22;5192;50.328;7.610;2023-07-13T07:31:40;18.70;1.00
10294;DHT22;5192;50.328;7.610;2023-07-13T07:34:07;18.70;1.00
10294;DHT22;5192;50.328;7.610;2023-07-13T07:36:34;18.60;1.00
10294;DHT22;5192;50.328;7.610;2023-07-13T07:39:01;18.70;1.00
10294;DHT22;5192;50.328;7.610;2023-07-13T07:41:29;18.80;1.00
10294;DHT22;5192;50.328;7.610;2023-07-13T07:43:56;18.80;1.00
10294;DHT22;5192;50.328;7.610;2023-07-13T07:46:22;18.80;1.00
10294;DHT22;5192;50.328;7.610;2023-07-13T07:48:50;18.90;1.00
10294;DHT22;5192;50.328;7.610;2023-07-13T07:51:17;19.00;1.00
10294;DHT22;5192;50.328;7.610;2023-07-13T07:53:43;19.10;1.00
10294;DHT22;5192;50.328;7.610;2023-07-13T07:56:11;19.30;1.00
10294;DHT22;5192;50.328;7.610;2023-07-13T07:58:38;19.40;1.00
10294;DHT22;5192;50.328;7.610;2023-07-13T08:01:08;19.40;1.00
10294;DHT22;5192;50.328;7.610;2023-07-13T08:03:38;19.40;1.00
10294;DHT22;5192;50.328;7.610;2023-07-13T08:06:05;19.60;1.00
10294;DHT22;5192;50.328;7.610;2023-07-13T08:08:32;19.60;1.00
10294;DHT22;5192;50.328;7.610;2023-07-13T08:11:03;19.80;1.00
10294;DHT22;5192;50.328;7.610;2023-07-13T08:13:30;19.80;1.00
10294;DHT22;5192;50.328;7.610;2023-07-13T08:15:57;20.00;1.00
10294;DHT22;5192;50.328;7.610;2023-07-13T08:18:26;20.10;1.00
10294;DHT22;5192;50.328;7.610;2023-07-13T08:20:55;20.30;1.00
10294;DHT22;5192;50.328;7.610;2023-07-13T08:23:23;20.40;1.00
10294;DHT22;5192;50.328;7.610;2023-07-13T08:25:52;20.50;1.00
10294;DHT22;5192;50.328;7.610;2023-07-13T08:28:21;20.70;1.00
10294;DHT22;5192;50.328;7.610;2023-07-13T08:30:48;20.70;1.00
10294;DHT22;5192;50.328;7.610;2023-07-13T08:33:17;20.80;1.00
10294;DHT22;5192;50.328;7.610;2023-07-13T08:35:46;20.80;1.00
10294;DHT22;5192;50.328;7.610;2023-07-13T08:38:14;21.00;1.00
10294;DHT22;5192;50.328;7.610;2023-07-13T08:40:48;21.20;1.00
10294;DHT22;5192;50.328;7.610;2023-07-13T08:43:25;21.20;1.00
10294;DHT22;5192;50.328;7.610;2023-07-13T08:46:15;21.30;1.00
10294;DHT22;5192;50.328;7.610;2023-07-13T08:48:52;21.30;1.00
10294;DHT22;5192;50.328;7.610;2023-07-13T08:54:43;21.40;1.00
10294;DHT22;5192;50.328;7.610;2023-07-13T08:57:21;21.40;1.00
10294;DHT22;5192;50.328;7.610;2023-07-13T08:59:54;21.40;1.00
10294;DHT22;5192;50.328;7.610;2023-07-13T09:02:54;21.40;1.00
10294;DHT22;5192;50.328;7.610;2023-07-13T09:05:40;21.30;1.00
10294;DHT22;5192;50.328;7.610;2023-07-13T09:08:41;21.40;1.00
10294;DHT22;5192;50.328;7.610;2023-07-13T09:11:52;21.50;1.00
10294;DHT22;5192;50.328;7.610;2023-07-13T09:14:56;21.70;1.00
10294;DHT22;5192;50.328;7.610;2023-07-13T09:17:40;21.70;1.00
10294;DHT22;5192;50.328;7.610;2023-07-13T09:20:34;21.80;1.00
10294;DHT22;5192;50.328;7.610;2023-07-13T09:23:07;21.90;1.00
10294;DHT22;5192;50.328;7.610;2023-07-13T09:25:35;21.80;1.00
10294;DHT22;5192;50.328;7.610;2023-07-13T09:28:22;21.80;1.00
10294;DHT22;5192;50.328;7.610;2023-07-13T09:31:13;21.90;1.00
10294;DHT22;5192;50.328;7.610;2023-07-13T09:33:41;21.90;1.00
10294;DHT22;5192;50.328;7.610;2023-07-13T09:36:28;22.10;1.00
10294;DHT22;5192;50.328;7.610;2023-07-13T09:39:15;22.20;1.00
10294;DHT22;5192;50.328;7.610;2023-07-13T09:42:13;22.20;1.00
10294;DHT22;5192;50.328;7.610;2023-07-13T09:45:00;22.30;1.00
10294;DHT22;5192;50.328;7.610;2023-07-13T09:47:40;22.40;1.00
10294;DHT22;5192;50.328;7.610;2023-07-13T09:50:17;22.30;1.00
10294;DHT22;5192;50.328;7.610;2023-07-13T09:52:51;22.30;1.00
10294;DHT22;5192;50.328;7.610;2023-07-13T09:55:47;22.40;1.00
10294;DHT22;5192;50.328;7.610;2023-07-13T09:58:25;22.40;1.00
10294;DHT22;5192;50.328;7.610;2023-07-13T10:01:00;22.50;1.00
10294;DHT22;5192;50.328;7.610;2023-07-13T10:03:31;22.70;1.00
10294;DHT22;5192;50.328;7.610;2023-07-13T10:06:19;22.80;1.00
10294;DHT22;5192;50.328;7.610;2023-07-13T10:08:50;22.70;1.00
10294;DHT22;5192;50.328;7.610;2023-07-13T10:11:36;22.60;1.00
10294;DHT22;5192;50.328;7.610;2023-07-13T10:14:12;22.50;1.00
10294;DHT22;5192;50.328;7.610;2023-07-13T10:16:39;22.40;1.00
10294;DHT22;5192;50.328;7.610;2023-07-13T10:19:18;22.50;1.00
10294;DHT22;5192;50.328;7.610;2023-07-13T10:25:24;22.70;1.00
10294;DHT22;5192;50.328;7.610;2023-07-13T10:28:11;22.50;1.00
10294;DHT22;5192;50.328;7.610;2023-07-13T10:30:42;22.70;1.00
10294;DHT22;5192;50.328;7.610;2023-07-13T10:33:14;22.90;1.00
10294;DHT22;5192;50.328;7.610;2023-07-13T10:35:43;22.90;1.00
10294;DHT22;5192;50.328;7.610;2023-07-13T10:38:18;23.10;1.00
10294;DHT22;5192;50.328;7.610;2023-07-13T10:41:09;23.30;1.00
10294;DHT22;5192;50.328;7.610;2023-07-13T10:43:45;23.30;1.00
10294;DHT22;5192;50.328;7.610;2023-07-13T10:46:17;23.30;1.00
10294;DHT22;5192;50.328;7.610;2023-07-13T10:48:55;23.70;1.00
10294;DHT22;5192;50.328;7.610;2023-07-13T10:51:23;24.00;1.00
10294;DHT22;5192;50.328;7.610;2023-07-13T10:54:21;24.00;1.00
10294;DHT22;5192;50.328;7.610;2023-07-13T11:00:16;23.80;1.00
10294;DHT22;5192;50.328;7.610;2023-07-13T11:02:59;23.70;1.00
10294;DHT22;5192;50.328;7.610;2023-07-13T11:05:31;23.70;1.00
10294;DHT22;5192;50.328;7.610;2023-07-13T11:08:16;23.70;1.00
10294;DHT22;5192;50.328;7.610;2023-07-13T11:10:55;23.80;1.00
10294;DHT22;5192;50.328;7.610;2023-07-13T11:16:38;24.00;1.00
10294;DHT22;5192;50.328;7.610;2023-07-13T11:24:52;23.70;1.00
10294;DHT22;5192;50.328;7.610;2023-07-13T11:27:44;24.00;1.00
10294;DHT22;5192;50.328;7.610;2023-07-13T11:33:16;23.90;1.00
10294;DHT22;5192;50.328;7.610;2023-07-13T11:36:16;23.90;1.00
10294;DHT22;5192;50.328;7.610;2023-07-13T11:42:04;23.50;1.00
10294;DHT22;5192;50.328;7.610;2023-07-13T11:44:32;23.50;1.00
10294;DHT22;5192;50.328;7.610;2023-07-13T11:47:11;23.60;1.00
10294;DHT22;5192;50.328;7.610;2023-07-13T11:49:50;23.50;1.00
10294;DHT22;5192;50.328;7.610;2023-07-13T11:52:22;23.40;1.00
10294;DHT22;5192;50.328;7.610;2023-07-13T11:54:53;23.50;1.00
10294;DHT22;5192;50.328;7.610;2023-07-13T11:57:43;23.50;1.00
10294;DHT22;5192;50.328;7.610;2023-07-13T12:00:15;23.60;1.00
10294;DHT22;5192;50.328;7.610;2023-07-13T12:02:46;23.50;1.00
10294;DHT22;5192;50.328;7.610;2023-07-13T12:05:16;23.50;1.00
10294;DHT22;5192;50.328;7.610;2023-07-13T12:07:49;23.50;1.00
10294;DHT22;5192;50.328;7.610;2023-07-13T12:10:26;23.80;1.00
10294;DHT22;5192;50.328;7.610;2023-07-13T12:13:03;23.90;1.00
10294;DHT22;5192;50.328;7.610;2023-07-13T12:15:46;23.80;1.00
10294;DHT22;5192;50.328;7.610;2023-07-13T12:18:20;23.70;1.00
10294;DHT22;5192;50.328;7.610;2023-07-13T12:20:46;23.80;1.00
10294;DHT22;5192;50.328;7.610;2023-07-13T12:26:10;23.60;1.00
10294;DHT22;5192;50.328;7.610;2023-07-13T12:28:55;23.30;1.00
10294;DHT22;5192;50.328;7.610;2023-07-13T12:31:41;23.30;1.00
10294;DHT22;5192;50.328;7.610;2023-07-13T12:37:01;23.30;1.00
10294;DHT22;5192;50.328;7.610;2023-07-13T12:39:38;23.40;1.00
10294;DHT22;5192;50.328;7.610;2023-07-13T12:42:31;23.50;1.00
10294;DHT22;5192;50.328;7.610;2023-07-13T12:47:49;23.40;1.00
10294;DHT22;5192;50.328;7.610;2023-07-13T12:50:19;23.30;1.00
10294;DHT22;5192;50.328;7.610;2023-07-13T12:52:54;23.40;1.00
10294;DHT22;5192;50.328;7.610;2023-07-13T12:55:23;23.40;1.00
10294;DHT22;5192;50.328;7.610;2023-07-13T12:58:09;23.60;1.00
10294;DHT22;5192;50.328;7.610;2023-07-13T13:00:41;23.20;1.00
10294;DHT22;5192;50.328;7.610;2023-07-13T13:06:26;23.50;1.00
10294;DHT22;5192;50.328;7.610;2023-07-13T13:08:56;23.50;1.00
10294;DHT22;5192;50.328;7.610;2023-07-13T13:11:31;23.40;1.00
10294;DHT22;5192;50.328;7.610;2023-07-13T13:13:58;23.50;1.00
10294;DHT22;5192;50.328;7.610;2023-07-13T13:16:47;23.70;1.00
10294;DHT22;5192;50.328;7.610;2023-07-13T13:19:35;23.80;1.00
10294;DHT22;5192;50.328;7.610;2023-07-13T13:22:02;23.80;1.00
10294;DHT22;5192;50.328;7.610;2023-07-13T13:24:29;23.50;1.00
10294;DHT22;5192;50.328;7.610;2023-07-13T13:26:56;23.30;1.00
10294;DHT22;5192;50.328;7.610;2023-07-13T13:29:26;23.30;1.00
10294;DHT22;5192;50.328;7.610;2023-07-13T13:31:55;23.30;1.00
10294;DHT22;5192;50.328;7.610;2023-07-13T13:34:23;23.50;1.00
10294;DHT22;5192;50.328;7.610;2023-07-13T13:36:51;23.50;1.00
10294;DHT22;5192;50.328;7.610;2023-07-13T13:42:13;23.50;1.00
10294;DHT22;5192;50.328;7.610;2023-07-13T13:44:41;23.30;1.00
10294;DHT22;5192;50.328;7.610;2023-07-13T13:47:25;23.40;1.00
10294;DHT22;5192;50.328;7.610;2023-07-13T13:49:54;23.50;1.00
10294;DHT22;5192;50.328;7.610;2023-07-13T13:52:23;23.60;1.00
10294;DHT22;5192;50.328;7.610;2023-07-13T13:54:54;23.60;1.00
10294;DHT22;5192;50.328;7.610;2023-07-13T13:57:25;23.40;1.00
10294;DHT22;5192;50.328;7.610;2023-07-13T13:59:55;23.60;1.00
10294;DHT22;5192;50.328;7.610;2023-07-13T14:02:29;23.80;1.00
10294;DHT22;5192;50.328;7.610;2023-07-13T14:05:02;23.60;1.00
10294;DHT22;5192;50.328;7.610;2023-07-13T14:07:31;24.00;1.00
10294;DHT22;5192;50.328;7.610;2023-07-13T14:09:59;24.70;1.00
10294;DHT22;5192;50.328;7.610;2023-07-13T14:12:31;25.10;1.00
10294;DHT22;5192;50.328;7.610;2023-07-13T14:14:57;25.00;1.00
10294;DHT22;5192;50.328;7.610;2023-07-13T14:17:26;24.90;1.00
10294;DHT22;5192;50.328;7.610;2023-07-13T14:19:53;24.90;1.00
10294;DHT22;5192;50.328;7.610;2023-07-13T14:22:30;24.90;1.00
10294;DHT22;5192;50.328;7.610;2023-07-13T14:24:59;25.00;1.00
10294;DHT22;5192;50.328;7.610;2023-07-13T14:27:27;25.10;1.00
10294;DHT22;5192;50.328;7.610;2023-07-13T14:29:53;25.20;1.00
10294;DHT22;5192;50.328;7.610;2023-07-13T14:32:20;25.40;1.00
10294;DHT22;5192;50.328;7.610;2023-07-13T14:34:48;25.80;1.00
10294;DHT22;5192;50.328;7.610;2023-07-13T14:37:15;26.20;1.00
10294;DHT22;5192;50.328;7.610;2023-07-13T14:39:45;26.70;1.00
10294;DHT22;5192;50.328;7.610;2023-07-13T14:42:13;26.80;1.00
10294;DHT22;5192;50.328;7.610;2023-07-13T14:44:40;26.50;1.00
10294;DHT22;5192;50.328;7.610;2023-07-13T14:47:08;26.50;1.00
10294;DHT22;5192;50.328;7.610;2023-07-13T14:49:44;26.40;1.00
10294;DHT22;5192;50.328;7.610;2023-07-13T14:52:20;26.20;1.00
10294;DHT22;5192;50.328;7.610;2023-07-13T14:54:49;25.90;1.00
10294;DHT22;5192;50.328;7.610;2023-07-13T14:57:23;25.80;1.00
10294;DHT22;5192;50.328;7.610;2023-07-13T14:59:50;25.60;1.00
10294;DHT22;5192;50.328;7.610;2023-07-13T15:05:30;25.40;1.00
10294;DHT22;5192;50.328;7.610;2023-07-13T15:07:59;25.20;1.00
10294;DHT22;5192;50.328;7.610;2023-07-13T15:10:31;25.20;1.00
10294;DHT22;5192;50.328;7.610;2023-07-13T15:13:19;25.40;1.00
10294;DHT22;5192;50.328;7.610;2023-07-13T15:15:52;25.20;1.00
10294;DHT22;5192;50.328;7.610;2023-07-13T15:18:22;25.20;1.00
10294;DHT22;5192;50.328;7.610;2023-07-13T15:20:52;25.10;1.00
10294;DHT22;5192;50.328;7.610;2023-07-13T15:23:21;25.20;1.00
10294;DHT22;5192;50.328;7.610;2023-07-13T15:25:49;25.20;1.00
10294;DHT22;5192;50.328;7.610;2023-07-13T15:28:16;25.30;1.00
10294;DHT22;5192;50.328;7.610;2023-07-13T15:30:48;25.10;1.00
10294;DHT22;5192;50.328;7.610;2023-07-13T15:33:33;25.40;1.00
10294;DHT22;5192;50.328;7.610;2023-07-13T15:36:02;25.70;1.00
10294;DHT22;5192;50.328;7.610;2023-07-13T15:38:32;25.80;1.00
10294;DHT22;5192;50.328;7.610;2023-07-13T15:41:04;26.20;1.00
10294;DHT22;5192;50.328;7.610;2023-07-13T15:43:46;26.60;1.00
10294;DHT22;5192;50.328;7.610;2023-07-13T15:46:14;27.20;1.00
10294;DHT22;5192;50.328;7.610;2023-07-13T15:48:43;27.20;1.00
10294;DHT22;5192;50.328;7.610;2023-07-13T15:51:29;27.80;1.00
10294;DHT22;5192;50.328;7.610;2023-07-13T15:54:02;28.20;1.00
10294;DHT22;5192;50.328;7.610;2023-07-13T15:56:38;28.30;1.00
10294;DHT22;5192;50.328;7.610;2023-07-13T15:59:11;28.20;1.00
10294;DHT22;5192;50.328;7.610;2023-07-13T16:01:42;27.80;1.00
10294;DHT22;5192;50.328;7.610;2023-07-13T16:04:08;27.20;1.00
10294;DHT22;5192;50.328;7.610;2023-07-13T16:06:36;27.20;1.00
10294;DHT22;5192;50.328;7.610;2023-07-13T16:09:04;26.80;1.00
10294;DHT22;5192;50.328;7.610;2023-07-13T16:11:38;26.70;1.00
10294;DHT22;5192;50.328;7.610;2023-07-13T16:14:04;26.40;1.00
10294;DHT22;5192;50.328;7.610;2023-07-13T16:16:37;26.00;1.00
10294;DHT22;5192;50.328;7.610;2023-07-13T16:19:06;25.60;1.00
10294;DHT22;5192;50.328;7.610;2023-07-13T16:21:56;25.60;1.00
10294;DHT22;5192;50.328;7.610;2023-07-13T16:24:27;25.60;1.00
10294;DHT22;5192;50.328;7.610;2023-07-13T16:26:54;25.50;1.00
10294;DHT22;5192;50.328;7.610;2023-07-13T16:29:25;25.40;1.00
10294;DHT22;5192;50.328;7.610;2023-07-13T16:32:13;25.30;1.00
10294;DHT22;5192;50.328;7.610;2023-07-13T16:34:42;25.30;1.00
10294;DHT22;5192;50.328;7.610;2023-07-13T16:37:22;25.20;1.00
10294;DHT22;5192;50.328;7.610;2023-07-13T16:39:52;25.00;1.00
10294;DHT22;5192;50.328;7.610;2023-07-13T16:42:18;25.00;1.00
10294;DHT22;5192;50.328;7.610;2023-07-13T16:44:44;25.00;1.00
10294;DHT22;5192;50.328;7.610;2023-07-13T16:47:16;25.80;1.00
10294;DHT22;5192;50.328;7.610;2023-07-13T16:49:45;25.90;1.00
10294;DHT22;5192;50.328;7.610;2023-07-13T16:52:12;25.90;1.00
10294;DHT22;5192;50.328;7.610;2023-07-13T16:54:39;25.70;1.00
10294;DHT22;5192;50.328;7.610;2023-07-13T16:57:25;25.50;1.00
10294;DHT22;5192;50.328;7.610;2023-07-13T16:59:56;25.40;1.00
10294;DHT22;5192;50.328;7.610;2023-07-13T17:02:41;25.00;1.00
10294;DHT22;5192;50.328;7.610;2023-07-13T17:05:13;24.70;1.00
10294;DHT22;5192;50.328;7.610;2023-07-13T17:07:41;24.50;1.00
10294;DHT22;5192;50.328;7.610;2023-07-13T17:10:23;24.30;1.00
10294;DHT22;5192;50.328;7.610;2023-07-13T17:12:53;24.10;1.00